Time;durP1;ratioP1;P1;durP2;ratioP2;P2;SDS_P1;SDS_P2;PMS_P1;PMS_P2;Temp;Humidity;BMP_temperature;BMP_pressure;BME280_temperature;BME280_humidity;BME280_pressure;Samples;Min_cycle;Max_cycle;Signal;HPM_P1;HPM_P2
2023/02/12 00:01:27;;;;;;;21.87;15.77;;;;;;;7.82;72.16;100680.84;5034329;27;102861;-69
2023/02/12 00:03:55;;;;;;;20.73;15.77;;;;;;;7.86;71.40;100688.59;5031360;27;103739;-70
2023/02/12 00:06:24;;;;;;;22.40;17.43;;;;;;;7.89;71.46;100692.91;5025605;27;103203;-70
2023/02/12 00:08:53;;;;;;;23.30;17.93;;;;;;;7.87;70.92;100686.84;5029570;27;102733;-70
2023/02/12 00:11:23;;;;;;;26.13;20.87;;;;;;;7.49;72.75;100686.19;5030307;27;103949;-70
2023/02/12 00:13:51;;;;;;;26.30;20.27;;;;;;;7.19;74.32;100688.81;5029485;27;103289;-70
2023/02/12 00:16:22;;;;;;;29.27;20.80;;;;;;;7.18;74.92;100693.22;5035905;27;103317;-71
2023/02/12 00:18:53;;;;;;;25.43;19.73;;;;;;;7.35;74.10;100691.00;5034841;27;102596;-70
2023/02/12 00:21:22;;;;;;;28.07;21.37;;;;;;;7.31;74.37;100694.59;5037512;27;102642;-70
2023/02/12 00:23:50;;;;;;;22.20;16.93;;;;;;;7.47;73.81;100689.75;5035040;27;104227;-70
2023/02/12 00:26:21;;;;;;;27.77;19.97;;;;;;;7.32;74.26;100696.34;5033503;27;103244;-70
2023/02/12 00:28:53;;;;;;;27.17;18.47;;;;;;;7.36;74.58;100702.34;5031753;27;102955;-70
2023/02/12 00:31:22;;;;;;;24.33;18.37;;;;;;;7.36;74.77;100697.97;5032991;27;103581;-70
2023/02/12 00:33:52;;;;;;;23.70;19.63;;;;;;;7.42;73.84;100702.19;5030521;27;104024;-70
2023/02/12 00:36:22;;;;;;;29.87;20.37;;;;;;;7.35;74.34;100704.16;5028663;27;102601;-70
2023/02/12 00:38:51;;;;;;;25.03;19.63;;;;;;;7.16;75.20;100700.28;5032475;27;102701;-71
2023/02/12 00:41:20;;;;;;;26.83;19.03;;;;;;;7.07;75.46;100708.44;5032807;27;102811;-71
2023/02/12 00:43:48;;;;;;;28.23;21.10;;;;;;;7.12;75.47;100713.56;5030791;27;104139;-70
2023/02/12 00:46:16;;;;;;;30.63;20.37;;;;;;;7.04;75.46;100716.38;5032584;27;104546;-70
2023/02/12 00:48:44;;;;;;;26.47;21.37;;;;;;;7.06;75.86;100716.34;5032381;27;102762;-71
2023/02/12 00:51:13;;;;;;;28.60;20.83;;;;;;;7.33;74.55;100716.47;5026842;27;103772;-70
2023/02/12 00:53:43;;;;;;;31.80;20.37;;;;;;;7.19;74.81;100710.72;5030952;27;103814;-70
2023/02/12 00:56:11;;;;;;;26.80;21.70;;;;;;;7.19;75.00;100715.97;5035983;27;103245;-70
2023/02/12 00:58:40;;;;;;;22.47;17.37;;;;;;;7.46;73.95;100707.34;5029015;27;102936;-71
2023/02/12 01:01:08;;;;;;;25.37;20.67;;;;;;;7.54;73.05;100718.50;5028471;27;102968;-70
2023/02/12 01:03:36;;;;;;;28.80;21.07;;;;;;;7.44;73.64;100709.13;5031606;27;104329;-71
2023/02/12 01:06:04;;;;;;;21.03;16.00;;;;;;;7.62;73.16;100704.25;5033696;27;103067;-71
2023/02/12 01:08:33;;;;;;;29.33;19.57;;;;;;;7.56;72.55;100700.03;5034672;27;102730;-71
2023/02/12 01:11:04;;;;;;;25.47;20.60;;;;;;;7.22;74.32;100708.00;5034999;27;103860;-71
2023/02/12 01:13:33;;;;;;;24.73;20.13;;;;;;;7.27;74.65;100708.72;5028871;27;104775;-70
2023/02/12 01:16:03;;;;;;;25.03;17.27;;;;;;;7.40;74.63;100704.88;5035299;27;104532;-70
2023/02/12 01:18:31;;;;;;;19.27;14.37;;;;;;;7.55;73.71;100698.31;5026147;27;102676;-70
2023/02/12 01:21:00;;;;;;;25.37;18.87;;;;;;;7.56;72.60;100706.16;5034476;27;102657;-70
2023/02/12 01:23:28;;;;;;;19.70;15.13;;;;;;;7.61;73.27;100707.81;5030451;27;104023;-71
2023/02/12 01:25:58;;;;;;;22.23;16.77;;;;;;;7.65;72.98;100702.41;5026569;27;104363;-71
2023/02/12 01:28:26;;;;;;;24.37;20.03;;;;;;;7.70;72.77;100702.25;5033723;27;102770;-71
2023/02/12 01:30:54;;;;;;;30.07;20.13;;;;;;;7.11;74.72;100712.69;5029250;27;104169;-71
2023/02/12 01:33:22;;;;;;;26.20;20.77;;;;;;;7.02;76.49;100707.66;5029402;27;104073;-71
2023/02/12 01:35:49;;;;;;;21.57;16.70;;;;;;;7.33;75.11;100712.97;5046259;27;103230;-70
2023/02/12 01:38:17;;;;;;;28.83;22.30;;;;;;;7.17;75.67;100712.53;5029638;27;103200;-71
2023/02/12 01:40:45;;;;;;;25.07;19.57;;;;;;;7.15;76.34;100708.22;5026302;27;104272;-71
2023/02/12 01:43:14;;;;;;;21.23;16.53;;;;;;;7.44;75.19;100703.00;5034778;27;103749;-71
2023/02/12 01:45:49;;;;;;;21.37;15.93;;;;;;;7.59;74.10;100692.06;5031093;27;103230;-70
2023/02/12 01:48:19;;;;;;;27.70;20.93;;;;;;;7.56;73.33;100694.78;5033251;27;102757;-70
2023/02/12 01:50:48;;;;;;;26.57;20.70;;;;;;;7.43;74.86;100699.53;5032702;27;102935;-71
2023/02/12 01:53:19;;;;;;;25.53;18.17;;;;;;;7.57;74.31;100702.63;5031496;27;104001;-70
2023/02/12 01:55:50;;;;;;;19.60;15.20;;;;;;;7.66;73.53;100691.00;5027773;27;103200;-70
2023/02/12 01:58:23;;;;;;;23.47;17.47;;;;;;;7.72;73.39;100689.94;5031821;27;102787;-70
2023/02/12 02:00:52;;;;;;;19.20;15.77;;;;;;;7.73;73.08;100695.16;5033297;27;104162;-70
2023/02/12 02:03:20;;;;;;;24.17;18.67;;;;;;;7.69;72.86;100696.13;5035275;27;103719;-70
2023/02/12 02:05:55;;;;;;;25.17;20.17;;;;;;;7.45;73.74;100702.97;5032599;27;103200;-71
2023/02/12 02:08:24;;;;;;;19.60;16.27;;;;;;;7.37;74.72;100699.69;5051660;27;102769;-71
2023/02/12 02:10:52;;;;;;;30.17;20.33;;;;;;;7.07;75.22;100695.28;5031580;27;102669;-70
2023/02/12 02:16:15;;;;;;;28.87;21.37;;;;;;;6.90;76.39;100692.22;5030952;27;103225;-70
2023/02/12 02:18:53;;;;;;;30.20;21.47;;;;;;;6.41;78.74;100695.22;5031047;27;102725;-70
2023/02/12 02:21:45;;;;;;;24.87;18.87;;;;;;;6.73;78.31;100686.56;5034385;27;103886;-70
2023/02/12 02:24:48;;;;;;;23.10;17.03;;;;;;;7.15;76.79;100682.78;5035282;27;103332;-71
2023/02/12 02:27:20;;;;;;;28.37;22.67;;;;;;;7.10;75.69;100684.69;5035323;27;103996;-70
2023/02/12 02:30:26;;;;;;;27.83;21.27;;;;;;;6.84;77.53;100671.38;5034502;27;102606;-71
2023/02/12 02:33:06;;;;;;;27.10;21.07;;;;;;;7.01;76.38;100669.16;5016962;27;104804;-71
2023/02/12 02:35:41;;;;;;;21.60;17.33;;;;;;;7.22;75.74;100668.56;5030944;27;103338;-70
2023/02/12 02:38:22;;;;;;;28.33;20.77;;;;;;;7.27;74.96;100671.91;5027813;27;103136;-70
2023/02/12 02:40:55;;;;;;;24.23;18.13;;;;;;;7.35;74.99;100669.97;5026563;27;102611;-70
2023/02/12 02:43:28;;;;;;;26.53;19.23;;;;;;;7.39;74.47;100665.47;5022866;27;103117;-70
2023/02/12 02:46:01;;;;;;;22.80;16.50;;;;;;;7.37;75.04;100667.28;5019575;27;103333;-71
2023/02/12 02:48:36;;;;;;;30.57;20.13;;;;;;;7.03;75.52;100677.84;5021176;27;103343;-70
2023/02/12 02:51:09;;;;;;;24.10;18.00;;;;;;;7.07;76.56;100676.03;5022039;27;102959;-71
2023/02/12 02:53:42;;;;;;;23.10;17.27;;;;;;;7.27;75.56;100677.19;5023631;27;104270;-70
2023/02/12 02:56:14;;;;;;;23.47;19.67;;;;;;;7.34;75.25;100670.84;5025295;27;103344;-70
2023/02/12 02:58:50;;;;;;;22.23;16.63;;;;;;;7.37;75.14;100672.53;5021438;27;103286;-70
2023/02/12 03:01:21;;;;;;;23.33;18.37;;;;;;;7.45;74.80;100673.19;5025129;27;102859;-70
2023/02/12 03:03:54;;;;;;;24.73;19.07;;;;;;;7.42;74.61;100671.50;5027449;27;104250;-70
2023/02/12 03:06:27;;;;;;;28.63;20.17;;;;;;;7.36;74.75;100673.44;5029056;27;103444;-70
2023/02/12 03:09:00;;;;;;;22.63;18.57;;;;;;;7.41;74.94;100669.75;5026344;27;103211;-70
2023/02/12 03:11:32;;;;;;;25.77;20.13;;;;;;;7.44;74.44;100671.44;5023913;27;102712;-70
2023/02/12 03:14:05;;;;;;;25.57;21.43;;;;;;;7.25;74.83;100676.38;5031609;27;103577;-70
2023/02/12 03:16:38;;;;;;;29.50;19.90;;;;;;;7.19;75.89;100673.91;5025919;27;104173;-70
2023/02/12 03:19:12;;;;;;;28.73;21.47;;;;;;;7.29;74.97;100675.38;5028004;27;103184;-70
2023/02/12 03:21:43;;;;;;;26.33;19.63;;;;;;;7.34;75.00;100684.00;5026213;27;103044;-70
2023/02/12 03:24:16;;;;;;;28.63;20.67;;;;;;;7.40;74.56;100691.72;5029088;27;103874;-71
2023/02/12 03:26:48;;;;;;;26.03;18.50;;;;;;;7.43;74.81;100678.50;5024538;27;104224;-70
2023/02/12 03:29:16;;;;;;;24.17;19.60;;;;;;;7.42;74.40;100676.75;5020590;27;103255;-70
2023/02/12 03:31:53;;;;;;;22.93;17.93;;;;;;;7.50;74.51;100680.03;5023025;27;104639;-70
2023/02/12 03:34:31;;;;;;;23.83;19.60;;;;;;;7.46;73.98;100678.41;5026937;27;104514;-70
2023/02/12 03:37:02;;;;;;;22.23;17.60;;;;;;;7.48;74.58;100671.31;5021370;27;104126;-70
2023/02/12 03:39:38;;;;;;;25.83;19.83;;;;;;;7.48;73.85;100673.97;5022110;27;103175;-70
2023/02/12 03:42:10;;;;;;;25.40;18.57;;;;;;;7.43;74.74;100678.50;5029017;27;102761;-71
2023/02/12 03:44:48;;;;;;;23.13;19.03;;;;;;;7.42;74.45;100679.38;5033678;27;104332;-71
2023/02/12 03:47:22;;;;;;;26.63;21.57;;;;;;;7.35;74.60;100669.97;5034480;27;104275;-70
2023/02/12 03:50:01;;;;;;;28.30;22.47;;;;;;;7.04;76.40;100679.59;5029429;27;103217;-70
2023/02/12 03:52:29;;;;;;;25.03;20.17;;;;;;;7.13;75.92;100681.94;5035996;27;103161;-70
2023/02/12 03:54:58;;;;;;;30.63;22.63;;;;;;;6.79;77.12;100683.78;5033505;27;102691;-70
2023/02/12 03:57:30;;;;;;;26.23;20.97;;;;;;;6.96;77.26;100689.44;5027410;27;104317;-70
2023/02/12 03:59:58;;;;;;;29.53;21.67;;;;;;;6.82;77.74;100689.78;5037320;27;103144;-70
2023/02/12 04:02:26;;;;;;;32.23;22.60;;;;;;;6.51;78.90;100693.25;5038240;27;102650;-70
2023/02/12 04:04:55;;;;;;;29.63;23.23;;;;;;;6.24;79.95;100692.13;5036576;27;102824;-71
2023/02/12 04:07:23;;;;;;;28.87;23.40;;;;;;;6.29;80.26;100696.38;5031130;27;103350;-71
2023/02/12 04:09:51;;;;;;;31.40;23.30;;;;;;;6.07;81.13;100696.91;5030525;27;104266;-71
2023/02/12 04:12:34;;;;;;;32.10;23.10;;;;;;;5.89;81.75;100703.44;5032064;27;102655;-70
2023/02/12 04:15:22;;;;;;;27.93;20.77;;;;;;;5.95;81.49;100708.53;5029134;27;104315;-71
2023/02/12 04:18:01;;;;;;;30.60;23.07;;;;;;;6.18;80.67;100701.00;5028046;27;104215;-70
2023/02/12 04:20:46;;;;;;;31.40;23.63;;;;;;;6.12;81.17;100697.69;5028277;27;103191;-70
2023/02/12 04:23:22;;;;;;;29.73;23.43;;;;;;;6.18;80.97;100698.38;5028591;27;102762;-70
2023/02/12 04:25:59;;;;;;;27.90;21.40;;;;;;;6.35;80.31;100706.72;5027078;27;104072;-71
2023/02/12 04:28:37;;;;;;;27.77;20.57;;;;;;;6.27;80.56;100706.06;5023528;27;103325;-71
2023/02/12 04:31:11;;;;;;;31.77;19.67;;;;;;;6.58;79.25;100705.31;5036014;27;103443;-70
2023/02/12 04:33:44;;;;;;;28.37;20.50;;;;;;;6.22;80.51;100715.81;5033115;27;102556;-70
2023/02/12 04:36:17;;;;;;;30.13;22.53;;;;;;;5.92;82.13;100711.25;5033565;27;104201;-70
2023/02/12 04:38:51;;;;;;;29.10;21.37;;;;;;;6.24;81.41;100710.50;5025796;27;103278;-71
2023/02/12 04:41:21;;;;;;;30.97;20.77;;;;;;;6.12;81.39;100714.25;5026138;27;103167;-71
2023/02/12 04:43:49;;;;;;;32.00;22.30;;;;;;;6.09;80.97;100722.19;5023119;27;102731;-70
2023/02/12 04:46:17;;;;;;;27.07;22.47;;;;;;;6.13;81.32;100715.13;5025256;27;104541;-71
2023/02/12 04:48:53;;;;;;;31.67;23.20;;;;;;;5.95;82.14;100731.31;5021143;27;104272;-70
2023/02/12 04:51:22;;;;;;;30.97;22.93;;;;;;;5.91;82.30;100725.25;5024561;27;103176;-70
2023/02/12 04:53:50;;;;;;;28.50;21.40;;;;;;;5.90;82.73;100731.38;5023974;27;102792;-70
2023/02/12 04:56:18;;;;;;;29.07;21.27;;;;;;;5.93;82.32;100733.06;5024045;27;102736;-70
2023/02/12 04:58:46;;;;;;;29.67;21.00;;;;;;;5.91;82.75;100727.88;5044400;27;104087;-70
2023/02/12 05:01:14;;;;;;;28.10;20.47;;;;;;;6.03;81.93;100722.38;5031075;27;104452;-71
2023/02/12 05:03:42;;;;;;;29.27;20.87;;;;;;;6.06;81.98;100721.44;5028876;27;102678;-71
2023/02/12 05:06:10;;;;;;;27.87;20.80;;;;;;;6.28;81.03;100718.28;5029444;27;104154;-70
2023/02/12 05:08:39;;;;;;;27.40;21.37;;;;;;;6.43;79.90;100722.28;5029705;27;104528;-71
2023/02/12 05:11:09;;;;;;;29.30;21.87;;;;;;;6.56;79.53;100715.00;5034040;27;104001;-71
2023/02/12 05:13:37;;;;;;;24.17;19.40;;;;;;;6.59;79.47;100717.56;5031870;27;102757;-71
2023/02/12 05:16:06;;;;;;;26.27;20.67;;;;;;;6.54;78.88;100714.19;5030944;27;102861;-71
2023/02/12 05:18:35;;;;;;;29.43;21.20;;;;;;;6.68;78.43;100707.66;5028316;27;104221;-71
2023/02/12 05:21:05;;;;;;;21.47;17.10;;;;;;;6.83;78.19;100706.41;5031364;27;103273;-71
2023/02/12 05:23:35;;;;;;;26.17;19.83;;;;;;;6.90;77.27;100714.13;5028475;27;102824;-71
2023/02/12 05:26:06;;;;;;;24.67;20.20;;;;;;;6.87;77.08;100702.81;5029229;27;103773;-71
2023/02/12 05:28:34;;;;;;;27.13;19.97;;;;;;;6.84;77.59;100713.41;5023646;27;104301;-71
2023/02/12 05:31:04;;;;;;;27.20;21.40;;;;;;;6.77;77.76;100706.56;5026500;27;103393;-71
2023/02/12 05:33:33;;;;;;;23.20;18.53;;;;;;;6.91;77.20;100709.72;5022180;27;102719;-71
2023/02/12 05:36:03;;;;;;;27.50;20.63;;;;;;;6.64;78.12;100710.41;5026824;27;104693;-71
2023/02/12 05:38:32;;;;;;;28.80;20.90;;;;;;;6.64;78.39;100720.91;5034228;27;104150;-71
2023/02/12 05:41:05;;;;;;;29.60;19.63;;;;;;;6.60;78.18;100711.38;5024072;27;104413;-71
2023/02/12 05:43:33;;;;;;;26.57;18.00;;;;;;;6.64;78.09;100710.41;5025576;27;102767;-70
2023/02/12 05:46:03;;;;;;;30.23;19.93;;;;;;;6.58;78.02;100710.56;5026835;27;104686;-70
2023/02/12 05:48:32;;;;;;;27.60;19.97;;;;;;;6.72;78.03;100716.34;5026418;27;104088;-70
2023/02/12 05:51:04;;;;;;;27.33;19.43;;;;;;;6.73;77.67;100715.44;5026255;27;104890;-70
2023/02/12 05:53:31;;;;;;;27.50;20.57;;;;;;;6.53;78.40;100717.69;5022600;27;102707;-70
2023/02/12 05:56:12;;;;;;;24.27;19.60;;;;;;;6.48;78.69;100711.69;5024168;27;104112;-70
2023/02/12 05:58:42;;;;;;;26.57;21.07;;;;;;;6.47;78.85;100718.72;5024048;27;104120;-70
2023/02/12 06:01:13;;;;;;;23.47;19.00;;;;;;;6.48;78.87;100719.56;5027529;27;103128;-70
2023/02/12 06:03:42;;;;;;;25.77;20.83;;;;;;;6.45;78.77;100720.50;5024647;27;102694;-70
2023/02/12 06:06:10;;;;;;;25.73;19.83;;;;;;;6.63;78.55;100724.44;5024013;27;104222;-70
2023/02/12 06:08:38;;;;;;;26.07;21.00;;;;;;;6.50;78.58;100720.41;5019980;27;104675;-70
2023/02/12 06:11:09;;;;;;;29.80;19.17;;;;;;;6.48;78.70;100725.69;5027965;27;104317;-70
2023/02/12 06:13:38;;;;;;;30.17;21.40;;;;;;;6.48;78.53;100722.19;5024893;27;102870;-70
2023/02/12 06:16:06;;;;;;;27.13;21.10;;;;;;;6.23;79.70;100722.75;5043013;27;103676;-70
2023/02/12 06:18:36;;;;;;;28.77;19.90;;;;;;;6.06;80.40;100727.56;5025126;27;105122;-71
2023/02/12 06:21:05;;;;;;;28.20;19.73;;;;;;;6.19;80.26;100717.63;5021771;27;103194;-70
2023/02/12 06:23:32;;;;;;;28.03;21.20;;;;;;;6.33;79.63;100721.66;5024084;27;104528;-71
2023/02/12 06:26:00;;;;;;;25.40;19.57;;;;;;;6.59;78.58;100713.16;5028386;27;104035;-68
2023/02/12 06:28:28;;;;;;;24.03;20.40;;;;;;;6.58;77.91;100723.69;5029103;27;104813;-69
2023/02/12 06:30:57;;;;;;;24.60;21.47;;;;;;;6.26;79.21;100727.94;5020293;27;104388;-68
2023/02/12 06:33:25;;;;;;;27.37;22.03;;;;;;;6.11;79.70;100736.19;5024336;27;102666;-69
2023/02/12 06:35:53;;;;;;;27.07;19.73;;;;;;;6.23;79.72;100728.00;5020561;27;104195;-67
2023/02/12 06:38:21;;;;;;;29.47;21.87;;;;;;;6.22;79.53;100728.06;5021270;27;104534;-67
2023/02/12 06:40:49;;;;;;;24.47;17.67;;;;;;;6.54;78.66;100737.81;5021769;27;103188;-67
2023/02/12 06:43:17;;;;;;;25.37;20.10;;;;;;;6.52;78.53;100742.22;5023130;27;102798;-69
2023/02/12 06:45:45;;;;;;;25.23;19.67;;;;;;;6.64;77.40;100736.69;5027307;27;104272;-68
2023/02/12 06:48:14;;;;;;;25.67;20.13;;;;;;;6.65;76.67;100743.69;5023201;27;104455;-68
2023/02/12 06:50:42;;;;;;;30.60;22.07;;;;;;;6.62;76.54;100738.50;5044376;27;102751;-67
2023/02/12 06:53:09;;;;;;;21.40;16.53;;;;;;;6.77;76.46;100748.59;5024034;27;102858;-69
2023/02/12 06:55:40;;;;;;;29.17;21.70;;;;;;;6.52;76.61;100747.47;5023688;27;102781;-68
2023/02/12 06:58:08;;;;;;;26.30;20.87;;;;;;;6.64;76.57;100752.44;5022371;27;104401;-71
2023/02/12 07:00:35;;;;;;;31.30;23.20;;;;;;;6.33;77.42;100750.53;5026869;27;103250;-70
2023/02/12 07:03:06;;;;;;;32.63;23.13;;;;;;;6.60;76.34;100756.03;5024334;27;102734;-70
2023/02/12 07:05:38;;;;;;;26.67;20.87;;;;;;;6.74;76.44;100753.94;5025975;27;103439;-69
2023/02/12 07:08:06;;;;;;;27.73;21.83;;;;;;;6.65;75.84;100757.66;5019962;27;103931;-69
2023/02/12 07:10:34;;;;;;;31.67;24.47;;;;;;;6.24;77.72;100758.63;5026785;27;103340;-69
2023/02/12 07:13:02;;;;;;;31.60;22.70;;;;;;;6.33;77.82;100757.56;5023436;27;102696;-68
2023/02/12 07:15:30;;;;;;;27.07;20.97;;;;;;;6.50;77.41;100759.78;5027700;27;104210;-67
2023/02/12 07:17:58;;;;;;;25.83;21.17;;;;;;;6.56;76.49;100754.41;5026641;27;104349;-68
2023/02/12 07:20:26;;;;;;;26.37;20.10;;;;;;;6.74;76.34;100759.19;5023684;27;103269;-68
2023/02/12 07:22:55;;;;;;;30.03;21.47;;;;;;;6.58;77.28;100758.72;5024312;27;102704;-68
2023/02/12 07:25:22;;;;;;;30.63;21.70;;;;;;;6.13;78.43;100767.63;5023874;27;104335;-68
2023/02/12 07:27:50;;;;;;;27.23;22.30;;;;;;;5.97;79.90;100764.47;5028071;27;103977;-68
2023/02/12 07:30:18;;;;;;;31.83;23.70;;;;;;;6.13;79.84;100760.63;5030429;27;104337;-68
2023/02/12 07:32:46;;;;;;;32.07;23.60;;;;;;;6.11;79.86;100757.19;5036669;27;102708;-67
2023/02/12 07:35:14;;;;;;;26.93;20.80;;;;;;;6.38;79.60;100756.56;5031808;27;102835;-68
2023/02/12 07:37:42;;;;;;;29.30;21.57;;;;;;;6.39;79.41;100752.16;5033935;27;103818;-68
2023/02/12 07:40:12;;;;;;;28.10;20.17;;;;;;;6.52;78.99;100761.47;5028971;27;103436;-68
2023/02/12 07:42:39;;;;;;;29.40;22.83;;;;;;;6.33;80.23;100768.94;5029419;27;102681;-68
2023/02/12 07:45:10;;;;;;;27.53;21.67;;;;;;;6.14;80.78;100770.22;5032330;27;104309;-68
2023/02/12 07:47:39;;;;;;;28.87;22.47;;;;;;;6.18;80.71;100766.63;5033463;27;103198;-69
2023/02/12 07:50:07;;;;;;;30.47;23.63;;;;;;;6.22;80.82;100764.81;5034621;27;103246;-69
2023/02/12 07:52:35;;;;;;;28.40;20.63;;;;;;;6.41;80.47;100759.09;5029390;27;102744;-69
2023/02/12 07:55:03;;;;;;;29.17;21.60;;;;;;;6.47;79.91;100760.72;5029123;27;102754;-69
2023/02/12 07:57:32;;;;;;;31.10;21.90;;;;;;;6.54;79.50;100756.19;5032966;27;103510;-69
2023/02/12 08:00:00;;;;;;;30.30;23.03;;;;;;;6.60;79.38;100756.03;5028523;27;104330;-69
2023/02/12 08:02:28;;;;;;;30.80;22.50;;;;;;;6.80;78.47;100770.44;5030773;27;102675;-69
2023/02/12 08:04:56;;;;;;;26.17;22.00;;;;;;;7.15;77.55;100759.03;5031573;27;105024;-68
2023/02/12 08:07:24;;;;;;;26.67;20.33;;;;;;;7.28;76.50;100752.53;5029747;27;104575;-68
2023/02/12 08:09:52;;;;;;;23.47;18.47;;;;;;;7.58;75.52;100749.06;5035294;27;103242;-69
2023/02/12 08:12:20;;;;;;;21.37;18.20;;;;;;;7.74;74.63;100751.28;5026700;27;103832;-69
2023/02/12 08:14:49;;;;;;;22.30;17.17;;;;;;;7.91;73.93;100754.28;5031854;27;102819;-69
2023/02/12 08:17:17;;;;;;;26.17;18.97;;;;;;;7.68;74.56;100751.44;5029943;27;104642;-68
2023/02/12 08:19:45;;;;;;;23.20;16.67;;;;;;;7.93;73.81;100749.81;5030327;27;103261;-68
2023/02/12 08:22:13;;;;;;;29.53;24.23;;;;;;;7.91;72.73;100743.75;5032771;27;102994;-68
2023/02/12 08:24:42;;;;;;;26.20;20.17;;;;;;;7.99;73.25;100742.63;5032882;27;103009;-68
2023/02/12 08:27:10;;;;;;;29.87;24.83;;;;;;;7.95;72.63;100748.88;5034823;27;104272;-68
2023/02/12 08:29:39;;;;;;;27.60;20.03;;;;;;;8.12;72.54;100751.00;5032900;27;103196;-68
2023/02/12 08:32:13;;;;;;;31.53;22.97;;;;;;;7.99;72.49;100752.28;5032567;27;102658;-67
2023/02/12 08:34:41;;;;;;;27.47;23.10;;;;;;;7.73;72.69;100752.16;5031820;27;103767;-67
2023/02/12 08:37:09;;;;;;;27.60;22.53;;;;;;;8.01;72.93;100761.00;5032475;27;104471;-67
2023/02/12 08:39:37;;;;;;;27.70;22.63;;;;;;;7.87;72.94;100758.75;5028974;27;103247;-67
2023/02/12 08:42:04;;;;;;;31.87;24.30;;;;;;;8.03;72.70;100754.78;5033693;27;102649;-67
2023/02/12 08:44:32;;;;;;;25.40;21.87;;;;;;;7.96;72.98;100753.25;5032548;27;103992;-66
2023/02/12 08:47:00;;;;;;;29.70;22.70;;;;;;;8.25;72.42;100760.28;5029763;27;103795;-67
2023/02/12 08:49:30;;;;;;;29.73;24.27;;;;;;;8.12;72.21;100753.63;5033300;27;103269;-68
2023/02/12 08:52:00;;;;;;;28.60;23.03;;;;;;;8.38;71.75;100751.09;5030102;27;102609;-67
2023/02/12 08:54:30;;;;;;;31.20;24.87;;;;;;;8.34;71.66;100765.28;5032615;27;104158;-67
2023/02/12 08:57:00;;;;;;;28.30;22.17;;;;;;;8.49;71.80;100764.81;5024296;27;103217;-67
2023/02/12 08:59:28;;;;;;;28.53;22.17;;;;;;;8.56;71.42;100762.84;5029201;27;103175;-67
2023/02/12 09:01:56;;;;;;;30.17;21.23;;;;;;;8.70;70.63;100768.53;5034657;27;102672;-67
2023/02/12 09:04:25;;;;;;;26.37;19.70;;;;;;;8.77;70.58;100770.06;5028364;27;103898;-67
2023/02/12 09:06:55;;;;;;;31.43;25.07;;;;;;;8.58;71.01;100769.78;5026973;27;103314;-67
2023/02/12 09:09:25;;;;;;;30.93;24.23;;;;;;;8.38;71.66;100776.59;5041953;27;103956;-67
2023/02/12 09:11:53;;;;;;;31.83;24.33;;;;;;;7.88;73.51;100778.06;5027669;27;102779;-66
2023/02/12 09:14:23;;;;;;;31.03;23.93;;;;;;;7.35;75.47;100775.16;5030015;27;103907;-67
2023/02/12 09:16:52;;;;;;;31.00;25.10;;;;;;;7.30;76.40;100774.38;5034435;27;103965;-68
2023/02/12 09:19:20;;;;;;;34.23;26.60;;;;;;;7.17;77.01;100770.38;5027094;27;103205;-67
2023/02/12 09:21:51;;;;;;;35.50;27.07;;;;;;;7.30;76.97;100766.50;5033460;27;103186;-67
2023/02/12 09:24:24;;;;;;;32.30;26.50;;;;;;;7.67;75.43;100768.13;5033073;27;103595;-67
2023/02/12 09:26:52;;;;;;;33.40;27.13;;;;;;;7.27;76.46;100761.31;5026692;27;103282;-68
2023/02/12 09:29:20;;;;;;;28.27;23.63;;;;;;;7.51;76.80;100760.69;5031318;27;103159;-67
2023/02/12 09:31:48;;;;;;;31.17;23.03;;;;;;;7.95;75.65;100762.03;5025572;27;102801;-67
2023/02/12 09:34:16;;;;;;;33.50;23.13;;;;;;;8.29;74.73;100767.19;5030365;27;104455;-68
2023/02/12 09:36:44;;;;;;;34.03;24.17;;;;;;;8.39;73.08;100763.38;5035417;27;104055;-67
2023/02/12 09:39:11;;;;;;;32.90;25.10;;;;;;;8.77;73.02;100763.91;5032463;27;103229;-68
2023/02/12 09:42:14;;;;;;;32.27;25.50;;;;;;;8.87;72.12;100760.09;5028150;27;102709;-68
2023/02/12 09:44:48;;;;;;;28.93;23.37;;;;;;;9.24;71.35;100760.53;5028210;27;103904;-73
2023/02/12 09:47:26;;;;;;;25.83;20.53;;;;;;;9.58;70.13;100753.16;5030276;27;104159;-77
2023/02/12 09:50:11;;;;;;;34.60;25.97;;;;;;;8.87;72.05;100765.34;5024259;27;103179;-74
2023/02/12 09:52:40;;;;;;;35.47;26.83;;;;;;;8.30;73.86;100763.66;5026302;27;102648;-68
2023/02/12 09:55:14;;;;;;;37.60;29.13;;;;;;;8.47;73.52;100764.00;5028513;27;102837;-68
2023/02/12 09:57:44;;;;;;;34.27;25.77;;;;;;;8.74;73.98;100760.47;5035715;27;104348;-67
2023/02/12 10:00:16;;;;;;;34.90;26.70;;;;;;;9.04;73.12;100763.88;5030562;27;104277;-68
2023/02/12 10:02:48;;;;;;;33.57;26.70;;;;;;;8.71;72.90;100770.25;5032013;27;105110;-68
2023/02/12 10:05:22;;;;;;;32.27;26.53;;;;;;;8.97;73.80;100762.34;5046745;27;104297;-68
2023/02/12 10:08:13;;;;;;;30.23;25.17;;;;;;;9.56;71.96;100757.66;5030981;27;104139;-68
2023/02/12 10:10:51;;;;;;;34.73;27.80;;;;;;;8.80;73.65;100763.81;5025614;27;103276;-68
2023/02/12 10:13:37;;;;;;;34.67;27.47;;;;;;;8.72;75.06;100767.59;5029930;27;102742;-68
2023/02/12 10:16:12;;;;;;;31.67;25.17;;;;;;;8.86;74.28;100764.50;5023874;27;102938;-68
2023/02/12 10:18:59;;;;;;;30.13;22.43;;;;;;;9.04;75.02;100765.66;5027556;27;105713;-69
2023/02/12 10:21:42;;;;;;;27.63;22.07;;;;;;;8.53;75.63;100763.78;5031317;27;103755;-68
2023/02/12 10:24:29;;;;;;;29.07;23.50;;;;;;;8.80;74.94;100758.56;4996578;27;104634;-68
2023/02/12 10:27:00;;;;;;;28.10;22.10;;;;;;;9.06;75.75;100766.47;5022407;27;103553;-69
2023/02/12 10:29:34;;;;;;;33.07;25.60;;;;;;;8.93;75.86;100757.22;5017121;27;103147;-68
2023/02/12 10:32:07;;;;;;;29.10;22.87;;;;;;;8.81;76.48;100760.28;5021502;27;103018;-68
2023/02/12 10:34:37;;;;;;;28.30;22.33;;;;;;;9.37;73.63;100756.59;5026172;27;102965;-68
2023/02/12 10:37:14;;;;;;;32.17;23.70;;;;;;;9.24;74.71;100760.53;5025156;27;104044;-68
2023/02/12 10:39:48;;;;;;;32.93;24.63;;;;;;;9.22;74.84;100751.84;5022576;27;103945;-69
2023/02/12 10:42:19;;;;;;;27.13;22.40;;;;;;;9.98;73.48;100749.06;5013469;27;104518;-68
2023/02/12 10:44:48;;;;;;;29.30;22.53;;;;;;;9.89;71.30;100745.84;5017175;27;103927;-67
2023/02/12 10:47:20;;;;;;;28.27;22.63;;;;;;;9.80;72.93;100746.19;5026737;27;104285;-68
2023/02/12 10:49:52;;;;;;;27.27;23.07;;;;;;;9.22;74.16;100749.19;5027879;27;103145;-68
2023/02/12 10:52:33;;;;;;;32.10;24.10;;;;;;;9.18;74.82;100751.06;5024830;27;103291;-67
2023/02/12 10:55:00;;;;;;;30.60;24.33;;;;;;;9.02;74.35;100744.59;5019706;27;102955;-71
2023/02/12 10:57:30;;;;;;;33.27;25.70;;;;;;;9.59;74.11;100744.34;5026566;27;103875;-67
2023/02/12 11:00:24;;;;;;;29.80;24.00;;;;;;;9.85;72.70;100744.22;5023163;27;104548;-67
2023/02/12 11:03:03;;;;;;;29.80;23.70;;;;;;;9.81;72.06;100739.13;5020317;27;103163;-68
2023/02/12 11:05:32;;;;;;;29.00;23.23;;;;;;;9.36;73.85;100735.53;5013713;27;102672;-68
2023/02/12 11:08:02;;;;;;;30.97;23.70;;;;;;;9.39;73.87;100732.78;5026521;27;104738;-69
2023/02/12 11:10:32;;;;;;;24.47;19.50;;;;;;;10.02;73.39;100734.84;5016884;27;104168;-69
2023/02/12 11:13:01;;;;;;;23.27;18.57;;;;;;;10.21;71.41;100715.63;5050690;27;113397;-69
2023/02/12 11:15:37;;;;;;;19.37;15.67;;;;;;;10.41;71.17;100728.88;5043765;27;102656;-68
2023/02/12 11:18:07;;;;;;;9.70;8.67;;;;;;;10.18;70.84;100726.28;5050964;27;103676;-75
2023/02/12 11:20:40;;;;;;;5.67;5.03;;;;;;;10.21;70.41;100717.38;5051530;27;103836;-73
2023/02/12 11:23:24;;;;;;;7.13;4.93;;;;;;;10.47;69.07;100718.06;5050599;27;102991;-70
2023/02/12 11:25:58;;;;;;;6.13;4.03;;;;;;;10.77;69.17;100720.38;5044507;27;103152;-69
2023/02/12 11:28:27;;;;;;;6.83;4.43;;;;;;;10.87;68.61;100714.66;5047848;27;104347;-70
2023/02/12 11:30:59;;;;;;;6.10;5.23;;;;;;;10.68;68.79;100715.47;5044999;27;103924;-69